Time;durP1;ratioP1;P1;durP2;ratioP2;P2;SDS_P1;SDS_P2;PMS_P1;PMS_P2;Temp;Humidity;BMP_temperature;BMP_pressure;BME280_temperature;BME280_humidity;BME280_pressure;Samples;Min_cycle;Max_cycle;Signal;HPM_P1;HPM_P2
2022/12/22 03:25:53;;;;;;;99.97;22.27;;;;;;;;;;5063757;28;20128;-76
2022/12/22 03:28:20;;;;;;;55.22;20.58;;;;;;;;;;5063441;28;20551;-75
2022/12/22 03:30:52;;;;;;;68.55;24.20;;;;;;;;;;5063972;28;20072;-75
2022/12/22 03:33:21;;;;;;;68.65;23.90;;;;;;;;;;5067559;28;20037;-75
2022/12/22 03:35:47;;;;;;;95.30;24.90;;;;;;;;;;5062484;28;20057;-75
2022/12/22 03:38:13;;;;;;;88.25;24.80;;;;;;;;;;5062617;28;20400;-76
2022/12/22 03:40:39;;;;;;;107.07;25.15;;;;;;;;;;5065113;28;20483;-75
2022/12/22 03:46:38;;;;;;;119.13;24.90;;;;;;;;;;5064082;28;20127;-75
2022/12/22 03:49:08;;;;;;;150.75;26.80;;;;;;;;;;5055364;28;20199;-75
2022/12/22 03:51:33;;;;;;;120.65;24.02;;;;;;;;;;5059957;28;20047;-75
2022/12/22 03:53:59;;;;;;;94.40;24.83;;;;;;;;;;5064468;28;20514;-75
2022/12/22 03:56:25;;;;;;;147.60;26.73;;;;;;;;;;5066959;28;20045;-76
2022/12/22 03:58:51;;;;;;;145.73;23.27;;;;;;;;;;5069562;28;20044;-75
2022/12/22 04:01:17;;;;;;;160.18;22.58;;;;;;;;;;5059306;28;20049;-76
2022/12/22 04:03:43;;;;;;;122.75;20.00;;;;;;;;;;5066271;28;20476;-76
2022/12/22 04:06:09;;;;;;;126.25;20.00;;;;;;;;;;5065581;28;20135;-76
2022/12/22 04:08:35;;;;;;;127.20;19.60;;;;;;;;;;5068473;28;20043;-76
2022/12/22 04:13:46;;;;;;;135.30;20.17;;;;;;;;;;5065767;28;20476;-76
2022/12/22 04:16:12;;;;;;;159.35;19.48;;;;;;;;;;5067348;28;20063;-76
2022/12/22 04:18:38;;;;;;;87.95;15.35;;;;;;;;;;5062592;28;20067;-75
2022/12/22 04:21:04;;;;;;;104.28;16.85;;;;;;;;;;5068747;28;20198;-76
2022/12/22 04:23:30;;;;;;;132.02;19.13;;;;;;;;;;5065022;28;20063;-76
2022/12/22 04:25:56;;;;;;;162.85;20.48;;;;;;;;;;5068092;28;20052;-76
2022/12/22 04:28:22;;;;;;;196.40;20.52;;;;;;;;;;5060836;28;20049;-75
2022/12/22 04:30:49;;;;;;;106.53;18.08;;;;;;;;;;5065352;28;20051;-76
2022/12/22 04:33:16;;;;;;;112.22;16.58;;;;;;;;;;5070172;28;20055;-76
2022/12/22 04:35:42;;;;;;;109.22;16.52;;;;;;;;;;5066887;28;20143;-75
2022/12/22 04:38:08;;;;;;;80.82;15.23;;;;;;;;;;5070276;28;20480;-75
2022/12/22 04:40:34;;;;;;;73.65;15.10;;;;;;;;;;5067905;28;20067;-75
2022/12/22 04:43:01;;;;;;;75.22;13.98;;;;;;;;;;5069767;28;20118;-75
2022/12/22 04:45:27;;;;;;;76.22;14.48;;;;;;;;;;5065639;28;20408;-75
2022/12/22 04:47:53;;;;;;;66.15;13.02;;;;;;;;;;5064353;28;20052;-75
2022/12/22 04:50:21;;;;;;;49.20;12.35;;;;;;;;;;5066294;28;20144;-75
2022/12/22 04:52:47;;;;;;;69.88;11.80;;;;;;;;;;5063380;28;20059;-75
2022/12/22 04:55:13;;;;;;;38.80;9.77;;;;;;;;;;5064391;28;20049;-76
2022/12/22 04:57:42;;;;;;;34.72;10.25;;;;;;;;;;5067101;28;20040;-76
2022/12/22 05:00:09;;;;;;;44.80;10.90;;;;;;;;;;5063685;28;20045;-76
2022/12/22 05:02:35;;;;;;;68.30;10.65;;;;;;;;;;5069399;28;20442;-76
2022/12/22 05:05:01;;;;;;;67.72;10.07;;;;;;;;;;5067189;28;20040;-76
2022/12/22 05:07:27;;;;;;;77.72;11.18;;;;;;;;;;5067889;28;20385;-76
2022/12/22 05:09:53;;;;;;;58.00;8.75;;;;;;;;;;5064480;28;20051;-75
2022/12/22 05:15:04;;;;;;;57.22;8.35;;;;;;;;;;5066984;28;20371;-75
2022/12/22 05:17:30;;;;;;;60.88;8.00;;;;;;;;;;5067700;28;20076;-75
2022/12/22 05:19:56;;;;;;;33.28;7.82;;;;;;;;;;5069236;28;20579;-75
2022/12/22 05:22:22;;;;;;;35.08;7.93;;;;;;;;;;5065547;28;20052;-75
2022/12/22 05:24:48;;;;;;;32.50;7.15;;;;;;;;;;5071219;28;20036;-75
2022/12/22 05:27:14;;;;;;;18.95;6.85;;;;;;;;;;5065169;28;20080;-76
2022/12/22 05:29:40;;;;;;;21.17;6.43;;;;;;;;;;5068543;28;20119;-76
2022/12/22 05:32:06;;;;;;;21.60;6.75;;;;;;;;;;5066554;28;20076;-75
2022/12/22 05:34:32;;;;;;;18.02;6.95;;;;;;;;;;5064142;28;20087;-75
2022/12/22 05:36:58;;;;;;;21.40;6.75;;;;;;;;;;5069328;28;20139;-75
2022/12/22 05:39:24;;;;;;;34.97;7.00;;;;;;;;;;5063952;28;20044;-75
2022/12/22 05:41:50;;;;;;;35.97;6.97;;;;;;;;;;5064048;28;20042;-75
2022/12/22 05:44:16;;;;;;;27.45;6.60;;;;;;;;;;5069533;28;20044;-75
2022/12/22 05:46:42;;;;;;;30.92;7.05;;;;;;;;;;5061539;28;20041;-76
2022/12/22 05:49:08;;;;;;;41.15;6.63;;;;;;;;;;5068314;28;20048;-75
2022/12/22 05:51:34;;;;;;;54.15;5.97;;;;;;;;;;5064541;28;20076;-75
2022/12/22 05:54:00;;;;;;;62.55;5.63;;;;;;;;;;5069918;28;20044;-76
2022/12/22 05:56:26;;;;;;;65.03;6.40;;;;;;;;;;5064316;28;20044;-75
2022/12/22 05:58:52;;;;;;;68.80;6.93;;;;;;;;;;5064473;28;20037;-76
2022/12/22 06:01:18;;;;;;;39.22;5.82;;;;;;;;;;5065987;28;20037;-75
2022/12/22 06:03:44;;;;;;;36.42;5.55;;;;;;;;;;5063696;28;20132;-76
2022/12/22 06:06:10;;;;;;;43.60;5.50;;;;;;;;;;5069575;28;20119;-75
2022/12/22 06:08:36;;;;;;;38.78;4.78;;;;;;;;;;5065118;28;20488;-76
2022/12/22 06:11:02;;;;;;;56.42;5.22;;;;;;;;;;5060874;28;20048;-76
2022/12/22 06:13:28;;;;;;;42.58;5.38;;;;;;;;;;5068344;28;20041;-75
2022/12/22 06:15:54;;;;;;;38.97;7.32;;;;;;;;;;5061607;28;20048;-76
2022/12/22 06:18:20;;;;;;;63.22;12.02;;;;;;;;;;5065394;28;20044;-76
2022/12/22 06:20:46;;;;;;;55.30;6.35;;;;;;;;;;5065548;28;20238;-75
2022/12/22 06:23:12;;;;;;;59.05;6.00;;;;;;;;;;5067169;28;20135;-75
2022/12/22 06:25:38;;;;;;;45.70;6.05;;;;;;;;;;5065974;28;20048;-75
2022/12/22 06:28:04;;;;;;;35.05;5.25;;;;;;;;;;5064888;28;20067;-75
2022/12/22 06:30:30;;;;;;;28.55;4.53;;;;;;;;;;5060350;28;20045;-75
2022/12/22 06:32:56;;;;;;;33.58;4.63;;;;;;;;;;5065831;28;20093;-75
2022/12/22 06:35:22;;;;;;;18.40;4.47;;;;;;;;;;5065679;28;20091;-75
2022/12/22 06:37:48;;;;;;;21.90;4.70;;;;;;;;;;5061584;28;20048;-75
2022/12/22 06:40:14;;;;;;;25.60;4.43;;;;;;;;;;5064906;28;20044;-75
2022/12/22 06:45:25;;;;;;;26.48;5.18;;;;;;;;;;5067900;28;20052;-75
2022/12/22 06:47:51;;;;;;;47.00;5.95;;;;;;;;;;5057914;28;20432;-76
2022/12/22 06:50:17;;;;;;;29.48;5.80;;;;;;;;;;5060850;28;20044;-76
2022/12/22 06:52:46;;;;;;;19.98;4.85;;;;;;;;;;5062396;28;20085;-75
2022/12/22 06:55:12;;;;;;;27.83;5.80;;;;;;;;;;5058574;28;20060;-76
2022/12/22 06:57:38;;;;;;;41.13;6.68;;;;;;;;;;5058988;28;20393;-75
2022/12/22 07:00:04;;;;;;;29.90;6.25;;;;;;;;;;5067821;28;20045;-76
2022/12/22 07:02:30;;;;;;;31.77;6.15;;;;;;;;;;5064219;28;20051;-75
2022/12/22 07:04:56;;;;;;;32.72;6.15;;;;;;;;;;5065580;28;20139;-76
2022/12/22 07:07:22;;;;;;;52.72;6.43;;;;;;;;;;5065299;28;20119;-76
2022/12/22 07:09:48;;;;;;;37.92;6.50;;;;;;;;;;5065714;28;20052;-76
2022/12/22 07:12:15;;;;;;;32.90;5.95;;;;;;;;;;5066099;28;20048;-76
2022/12/22 07:14:40;;;;;;;48.03;6.80;;;;;;;;;;5067398;28;20056;-76
2022/12/22 07:17:07;;;;;;;28.30;5.80;;;;;;;;;;5064485;28;20037;-75
2022/12/22 07:19:34;;;;;;;33.28;6.07;;;;;;;;;;5064970;28;20056;-76
2022/12/22 07:22:00;;;;;;;22.45;5.65;;;;;;;;;;5062079;28;20049;-76
2022/12/22 07:24:28;;;;;;;26.42;5.47;;;;;;;;;;5066437;28;20051;-76
2022/12/22 07:26:54;;;;;;;19.30;4.82;;;;;;;;;;5062377;28;20048;-76
2022/12/22 07:29:20;;;;;;;22.65;5.25;;;;;;;;;;5065185;28;20400;-75
2022/12/22 07:31:46;;;;;;;25.35;5.35;;;;;;;;;;5061817;28;20504;-76
2022/12/22 07:34:12;;;;;;;20.42;6.03;;;;;;;;;;5060102;28;20090;-76
2022/12/22 07:36:38;;;;;;;16.98;5.90;;;;;;;;;;5060552;28;20095;-76
2022/12/22 07:39:04;;;;;;;18.70;6.60;;;;;;;;;;5063421;28;20490;-76
2022/12/22 07:44:17;;;;;;;14.40;8.27;;;;;;;;;;5052157;28;20044;-76
2022/12/22 07:46:43;;;;;;;16.80;8.38;;;;;;;;;;5063059;28;20370;-76
2022/12/22 07:51:56;;;;;;;18.15;8.73;;;;;;;;;;5056863;28;20047;-75
2022/12/22 07:54:22;;;;;;;23.45;10.35;;;;;;;;;;5069353;28;20048;-76
2022/12/22 07:56:52;;;;;;;22.58;9.75;;;;;;;;;;5062927;28;20523;-76
2022/12/22 07:59:21;;;;;;;18.88;9.70;;;;;;;;;;5061892;28;20407;-76
2022/12/22 08:01:56;;;;;;;22.02;9.43;;;;;;;;;;5065247;28;20396;-76
2022/12/22 08:04:22;;;;;;;39.75;11.02;;;;;;;;;;5066095;28;20071;-76
2022/12/22 08:06:48;;;;;;;28.67;10.20;;;;;;;;;;5059503;28;20399;-76
2022/12/22 08:09:16;;;;;;;29.27;10.25;;;;;;;;;;5054809;28;20399;-76
2022/12/22 08:11:42;;;;;;;31.05;9.52;;;;;;;;;;5064766;28;20048;-75
2022/12/22 08:14:08;;;;;;;21.08;8.30;;;;;;;;;;5050057;28;20139;-75
2022/12/22 08:16:34;;;;;;;21.83;8.85;;;;;;;;;;5059731;28;20048;-75
2022/12/22 08:19:01;;;;;;;16.52;8.35;;;;;;;;;;5063770;28;20109;-75
2022/12/22 08:21:26;;;;;;;17.58;8.85;;;;;;;;;;5067156;28;20451;-76
2022/12/22 08:23:53;;;;;;;14.23;8.27;;;;;;;;;;5065049;28;20130;-76
2022/12/22 08:26:22;;;;;;;15.98;8.40;;;;;;;;;;5074302;28;20056;-76
2022/12/22 08:28:56;;;;;;;14.20;7.70;;;;;;;;;;5056075;28;20086;-76
2022/12/22 08:31:25;;;;;;;16.33;8.25;;;;;;;;;;5061454;28;20087;-76
2022/12/22 08:33:54;;;;;;;17.35;8.48;;;;;;;;;;5063297;28;20040;-76
2022/12/22 08:36:21;;;;;;;14.75;9.07;;;;;;;;;;5062603;28;20052;-76
2022/12/22 08:38:47;;;;;;;16.92;9.40;;;;;;;;;;5064721;28;20044;-76
2022/12/22 08:41:14;;;;;;;13.90;8.02;;;;;;;;;;5059346;28;20101;-76
2022/12/22 08:43:40;;;;;;;17.88;8.30;;;;;;;;;;5064075;28;20507;-76
2022/12/22 08:46:06;;;;;;;19.58;8.98;;;;;;;;;;5060029;28;20430;-76
2022/12/22 08:48:33;;;;;;;16.90;8.48;;;;;;;;;;5063526;28;20483;-76
2022/12/22 08:50:59;;;;;;;16.98;8.25;;;;;;;;;;5063553;28;20051;-76
2022/12/22 08:53:25;;;;;;;19.10;8.43;;;;;;;;;;5063455;28;20093;-76
2022/12/22 08:55:55;;;;;;;16.02;8.80;;;;;;;;;;5070086;28;20041;-76
2022/12/22 08:58:21;;;;;;;17.70;7.95;;;;;;;;;;5062116;28;20045;-76
2022/12/22 09:00:47;;;;;;;15.80;7.35;;;;;;;;;;5064957;28;20082;-76
2022/12/22 09:03:13;;;;;;;12.98;7.07;;;;;;;;;;5064469;28;20037;-76
2022/12/22 09:05:40;;;;;;;18.63;7.50;;;;;;;;;;5070101;28;20044;-76
2022/12/22 09:08:06;;;;;;;16.90;7.40;;;;;;;;;;5068648;28;20040;-76
2022/12/22 09:10:33;;;;;;;15.80;7.63;;;;;;;;;;5066971;28;20056;-76
2022/12/22 09:12:59;;;;;;;15.57;6.68;;;;;;;;;;5064786;28;20037;-76
2022/12/22 09:15:25;;;;;;;14.45;6.70;;;;;;;;;;5065619;28;20075;-76
2022/12/22 09:17:51;;;;;;;18.10;6.50;;;;;;;;;;5067779;28;20056;-76
2022/12/22 09:20:17;;;;;;;18.15;6.00;;;;;;;;;;5067722;28;20040;-76
2022/12/22 09:22:43;;;;;;;16.13;6.65;;;;;;;;;;5062103;28;20049;-76
2022/12/22 09:25:09;;;;;;;18.27;6.35;;;;;;;;;;5060543;28;20036;-76
2022/12/22 09:27:35;;;;;;;15.52;5.60;;;;;;;;;;5064856;28;20063;-76
2022/12/22 09:30:01;;;;;;;16.10;5.75;;;;;;;;;;5072561;28;20044;-76
2022/12/22 09:32:28;;;;;;;14.02;5.80;;;;;;;;;;5069820;28;20048;-76
2022/12/22 09:34:54;;;;;;;14.80;5.10;;;;;;;;;;5069768;28;20509;-76
2022/12/22 09:37:20;;;;;;;18.05;5.75;;;;;;;;;;5066951;28;20648;-76
2022/12/22 09:39:46;;;;;;;21.23;5.03;;;;;;;;;;5062438;28;21586;-76
2022/12/22 09:42:18;;;;;;;19.77;5.40;;;;;;;;;;5072388;28;20056;-76
2022/12/22 09:44:45;;;;;;;14.65;4.57;;;;;;;;;;5062064;28;20400;-76
2022/12/22 09:47:24;;;;;;;17.42;4.97;;;;;;;;;;5069024;28;20468;-76
2022/12/22 09:49:51;;;;;;;14.40;3.78;;;;;;;;;;5065900;28;20044;-78
2022/12/22 09:52:30;;;;;;;14.43;3.88;;;;;;;;;;5066614;28;20048;-75
2022/12/22 09:54:56;;;;;;;12.52;4.20;;;;;;;;;;5072175;28;20464;-75
2022/12/22 09:57:25;;;;;;;11.88;3.38;;;;;;;;;;5070710;28;20098;-75
2022/12/22 09:59:51;;;;;;;12.77;3.67;;;;;;;;;;5070265;28;20051;-76
2022/12/22 10:02:25;;;;;;;16.48;3.58;;;;;;;;;;5070024;28;20131;-76
2022/12/22 10:05:10;;;;;;;16.48;3.97;;;;;;;;;;5072271;28;20127;-75
2022/12/22 10:07:38;;;;;;;18.83;4.05;;;;;;;;;;5071741;28;20052;-76
2022/12/22 10:10:26;;;;;;;15.20;4.25;;;;;;;;;;5071357;28;20048;-76
2022/12/22 10:12:56;;;;;;;16.02;5.50;;;;;;;;;;5063371;28;20068;-76
2022/12/22 10:15:23;;;;;;;10.85;4.07;;;;;;;;;;5064845;28;20059;-76
2022/12/22 10:17:50;;;;;;;16.13;3.72;;;;;;;;;;5066141;28;20044;-75
2022/12/22 10:20:24;;;;;;;11.15;3.83;;;;;;;;;;5067036;28;20063;-75
2022/12/22 10:23:01;;;;;;;12.77;3.75;;;;;;;;;;5068296;28;20488;-76
2022/12/22 10:25:30;;;;;;;16.52;4.32;;;;;;;;;;5055770;28;20045;-75
2022/12/22 10:27:57;;;;;;;11.10;3.42;;;;;;;;;;5068474;28;20044;-75
2022/12/22 10:30:34;;;;;;;11.02;3.67;;;;;;;;;;5066406;28;20075;-76
2022/12/22 10:33:02;;;;;;;12.65;3.45;;;;;;;;;;5067621;28;20459;-75
2022/12/22 10:35:39;;;;;;;12.02;3.45;;;;;;;;;;5066804;28;20087;-75
2022/12/22 10:38:24;;;;;;;14.45;3.95;;;;;;;;;;5062977;28;20044;-75
2022/12/22 10:40:52;;;;;;;12.25;3.50;;;;;;;;;;5066088;28;20032;-76
2022/12/22 10:43:23;;;;;;;13.95;3.58;;;;;;;;;;5063022;28;20040;-75
2022/12/22 10:45:49;;;;;;;14.02;3.53;;;;;;;;;;5061445;28;20039;-75
2022/12/22 10:48:16;;;;;;;14.73;4.35;;;;;;;;;;5068311;28;20106;-75
2022/12/22 10:50:48;;;;;;;15.75;3.60;;;;;;;;;;5066835;28;20105;-76
2022/12/22 10:53:15;;;;;;;12.20;3.13;;;;;;;;;;5069579;28;20055;-76
2022/12/22 10:55:42;;;;;;;13.88;4.15;;;;;;;;;;5061550;28;20045;-75
2022/12/22 10:58:08;;;;;;;13.48;3.55;;;;;;;;;;5066171;28;20056;-75
2022/12/22 11:00:35;;;;;;;13.02;3.78;;;;;;;;;;5069324;28;20048;-75
2022/12/22 11:03:03;;;;;;;12.70;3.40;;;;;;;;;;5071297;28;20039;-75
2022/12/22 11:05:31;;;;;;;12.70;3.55;;;;;;;;;;5065393;28;20468;-76
2022/12/22 11:08:00;;;;;;;20.55;4.03;;;;;;;;;;5050904;28;20136;-76
2022/12/22 11:10:30;;;;;;;19.38;4.43;;;;;;;;;;5067853;28;20041;-75
2022/12/22 11:13:15;;;;;;;13.98;3.30;;;;;;;;;;5070226;28;20048;-76
2022/12/22 11:15:44;;;;;;;10.90;3.33;;;;;;;;;;5062728;28;20431;-76
2022/12/22 11:18:13;;;;;;;13.23;4.45;;;;;;;;;;5066531;28;20040;-75
2022/12/22 11:20:57;;;;;;;10.77;3.17;;;;;;;;;;5063933;28;20124;-75
2022/12/22 11:23:23;;;;;;;;;;;;;;;;;;5067115;28;20044;-76
2022/12/22 11:25:55;;;;;;;10.75;3.22;;;;;;;;;;5064386;28;20364;-75
2022/12/22 11:28:34;;;;;;;14.48;3.95;;;;;;;;;;5066005;28;20403;-75
2022/12/22 11:31:12;;;;;;;11.80;3.70;;;;;;;;;;5066209;28;20045;-75
2022/12/22 11:33:38;;;;;;;10.25;3.60;;;;;;;;;;5061196;28;20052;-75
2022/12/22 11:36:06;;;;;;;9.43;2.92;;;;;;;;;;5067869;28;20052;-75
2022/12/22 11:38:38;;;;;;;14.82;3.80;;;;;;;;;;5068094;28;20090;-75
2022/12/22 11:41:10;;;;;;;12.27;3.42;;;;;;;;;;5065334;28;20384;-75
2022/12/22 11:43:58;;;;;;;14.23;3.88;;;;;;;;;;5066425;28;20487;-75
2022/12/22 11:46:34;;;;;;;12.13;3.60;;;;;;;;;;5059085;28;20032;-76
2022/12/22 11:49:19;;;;;;;17.80;4.18;;;;;;;;;;5060093;28;20637;-76
2022/12/22 11:51:52;;;;;;;14.68;4.00;;;;;;;;;;5065050;28;20076;-77
2022/12/22 11:54:38;;;;;;;14.93;3.50;;;;;;;;;;5068282;28;20041;-77
2022/12/22 11:57:10;;;;;;;14.45;4.25;;;;;;;;;;5068501;28;20443;-76
2022/12/22 11:59:36;;;;;;;13.95;3.85;;;;;;;;;;5062908;28;20041;-76
2022/12/22 12:02:11;;;;;;;9.43;3.08;;;;;;;;;;5063859;28;20507;-77
2022/12/22 12:04:40;;;;;;;15.75;4.22;;;;;;;;;;5067099;28;20488;-77
2022/12/22 12:07:21;;;;;;;8.48;3.50;;;;;;;;;;5068059;28;20434;-77
2022/12/22 12:09:52;;;;;;;13.43;3.25;;;;;;;;;;5069301;28;20484;-77
2022/12/22 12:12:27;;;;;;;15.77;3.47;;;;;;;;;;5069398;28;20048;-77
2022/12/22 12:14:56;;;;;;;14.48;3.60;;;;;;;;;;5066362;28;20042;-76
2022/12/22 12:17:25;;;;;;;16.77;4.07;;;;;;;;;;5069362;28;20103;-76
2022/12/22 12:20:02;;;;;;;17.50;3.60;;;;;;;;;;5066358;28;20052;-76
2022/12/22 12:22:40;;;;;;;14.90;3.10;;;;;;;;;;5067609;28;20127;-77
2022/12/22 12:25:12;;;;;;;14.77;3.17;;;;;;;;;;5059719;28;20040;-76
2022/12/22 12:27:47;;;;;;;14.77;3.33;;;;;;;;;;5070769;28;20048;-77
2022/12/22 12:30:17;;;;;;;11.18;3.50;;;;;;;;;;5065818;28;20041;-76
2022/12/22 12:33:02;;;;;;;13.95;3.47;;;;;;;;;;5066048;28;20052;-77
2022/12/22 12:35:28;;;;;;;14.45;3.88;;;;;;;;;;5067866;28;20573;-76
2022/12/22 12:37:59;;;;;;;13.70;3.70;;;;;;;;;;5069038;28;20045;-76
2022/12/22 12:40:39;;;;;;;14.48;3.83;;;;;;;;;;5061325;28;20048;-76
2022/12/22 12:43:05;;;;;;;19.33;4.07;;;;;;;;;;5065543;28;20346;-76
2022/12/22 12:45:36;;;;;;;15.88;3.92;;;;;;;;;;5069315;28;20487;-76
2022/12/22 12:48:20;;;;;;;11.35;3.80;;;;;;;;;;5069109;28;20540;-76
2022/12/22 12:50:50;;;;;;;8.13;3.20;;;;;;;;;;5069664;28;20067;-76
2022/12/22 12:53:17;;;;;;;12.43;3.70;;;;;;;;;;5071391;28;20485;-76
2022/12/22 12:55:50;;;;;;;13.95;3.97;;;;;;;;;;5067503;28;20073;-76
2022/12/22 12:58:52;;;;;;;12.50;3.20;;;;;;;;;;5069811;28;20128;-76
2022/12/22 13:01:18;;;;;;;12.88;3.88;;;;;;;;;;5029918;28;20053;-76
2022/12/22 13:03:47;;;;;;;13.27;4.10;;;;;;;;;;5063494;28;20048;-76
2022/12/22 13:06:32;;;;;;;17.20;3.90;;;;;;;;;;5072128;28;20056;-76
2022/12/22 13:09:07;;;;;;;16.00;3.85;;;;;;;;;;5067114;28;20041;-76
2022/12/22 13:11:35;;;;;;;11.38;3.65;;;;;;;;;;5062116;28;20065;-76
2022/12/22 13:14:02;;;;;;;11.35;3.17;;;;;;;;;;5070983;28;20047;-76
2022/12/22 13:16:29;;;;;;;18.25;4.20;;;;;;;;;;5060326;28;20428;-76
2022/12/22 13:18:58;;;;;;;11.80;3.45;;;;;;;;;;5064426;28;20493;-76
2022/12/22 13:21:26;;;;;;;13.23;3.78;;;;;;;;;;5070583;28;20504;-76
2022/12/22 13:23:55;;;;;;;16.52;3.65;;;;;;;;;;5067916;28;20129;-76
2022/12/22 13:26:22;;;;;;;10.98;3.70;;;;;;;;;;5067769;28;20049;-76
2022/12/22 13:28:54;;;;;;;9.60;4.00;;;;;;;;;;5065584;28;20124;-76
2022/12/22 13:31:22;;;;;;;10.00;3.20;;;;;;;;;;5067561;28;20480;-76
2022/12/22 13:33:51;;;;;;;8.45;2.72;;;;;;;;;;5063083;28;20036;-76
2022/12/22 13:36:19;;;;;;;9.48;3.30;;;;;;;;;;5067426;28;20429;-76
2022/12/22 13:38:46;;;;;;;13.43;2.88;;;;;;;;;;5068070;28;20037;-76
2022/12/22 13:41:16;;;;;;;8.95;3.00;;;;;;;;;;5066549;28;20591;-76
2022/12/22 13:43:44;;;;;;;11.65;3.10;;;;;;;;;;5065349;28;20040;-76
2022/12/22 13:46:10;;;;;;;10.60;4.20;;;;;;;;;;5063148;28;20120;-76
2022/12/22 13:48:36;;;;;;;8.80;3.50;;;;;;;;;;5066619;28;20385;-76
2022/12/22 13:51:04;;;;;;;11.48;3.13;;;;;;;;;;5060347;28;20048;-76
2022/12/22 13:53:33;;;;;;;10.45;3.15;;;;;;;;;;5059830;28;20123;-76
2022/12/22 13:55:59;;;;;;;15.45;3.40;;;;;;;;;;5067239;28;20041;-77
2022/12/22 13:58:28;;;;;;;9.85;2.92;;;;;;;;;;5068514;28;20080;-77
2022/12/22 14:01:20;;;;;;;13.88;3.53;;;;;;;;;;5060565;28;20048;-76
2022/12/22 14:03:46;;;;;;;10.00;2.90;;;;;;;;;;5062802;28;20062;-75
2022/12/22 14:06:31;;;;;;;13.40;3.30;;;;;;;;;;5062279;28;20052;-76
2022/12/22 14:09:19;;;;;;;11.15;3.20;;;;;;;;;;5067882;28;20044;-76
2022/12/22 14:11:50;;;;;;;12.57;3.00;;;;;;;;;;5069286;28;20041;-76
2022/12/22 14:14:18;;;;;;;9.48;3.20;;;;;;;;;;5068673;28;20045;-75
2022/12/22 14:16:45;;;;;;;8.98;3.17;;;;;;;;;;5054287;28;20130;-76
2022/12/22 14:19:15;;;;;;;7.60;3.45;;;;;;;;;;5062681;28;20041;-75
2022/12/22 14:21:43;;;;;;;7.97;3.67;;;;;;;;;;5070163;28;20117;-74
2022/12/22 14:24:12;;;;;;;6.60;3.33;;;;;;;;;;5061603;28;20045;-75
2022/12/22 14:26:38;;;;;;;11.18;3.42;;;;;;;;;;5068051;28;20124;-75
2022/12/22 14:29:06;;;;;;;8.68;3.38;;;;;;;;;;5065563;28;20098;-75
2022/12/22 14:31:32;;;;;;;11.20;3.83;;;;;;;;;;5070541;28;20576;-76
2022/12/22 14:34:05;;;;;;;8.82;3.38;;;;;;;;;;5068175;28;20115;-74
2022/12/22 14:36:40;;;;;;;9.40;3.92;;;;;;;;;;5070564;28;20061;-74
2022/12/22 14:39:09;;;;;;;11.52;3.63;;;;;;;;;;5069420;28;20132;-76
2022/12/22 14:41:42;;;;;;;9.15;3.22;;;;;;;;;;5058899;28;20091;-77
2022/12/22 14:44:15;;;;;;;9.52;4.22;;;;;;;;;;5057221;28;20052;-76
2022/12/22 14:46:42;;;;;;;11.23;3.72;;;;;;;;;;5066169;28;20036;-76
2022/12/22 14:49:16;;;;;;;9.18;3.75;;;;;;;;;;5068300;28;20186;-75
2022/12/22 14:51:42;;;;;;;14.05;4.70;;;;;;;;;;5066506;28;20055;-76
2022/12/22 14:54:17;;;;;;;9.63;4.75;;;;;;;;;;5063176;28;20059;-76
2022/12/22 14:56:47;;;;;;;8.68;4.22;;;;;;;;;;5050011;28;20553;-75
2022/12/22 14:59:22;;;;;;;9.40;4.60;;;;;;;;;;5061215;28;20041;-75
2022/12/22 15:02:02;;;;;;;11.18;4.70;;;;;;;;;;5067102;28;20093;-76
2022/12/22 15:04:28;;;;;;;12.18;4.78;;;;;;;;;;5057848;28;20036;-77
2022/12/22 15:07:05;;;;;;;13.10;5.60;;;;;;;;;;5066558;28;20048;-77
2022/12/22 15:09:31;;;;;;;12.68;5.32;;;;;;;;;;5061558;28;20048;-77
2022/12/22 15:12:10;;;;;;;14.02;5.70;;;;;;;;;;5066678;28;20090;-77
2022/12/22 15:14:37;;;;;;;13.50;5.70;;;;;;;;;;5056532;28;20433;-76
2022/12/22 15:17:03;;;;;;;13.32;6.43;;;;;;;;;;5059699;28;20450;-77
2022/12/22 15:19:30;;;;;;;16.55;7.07;;;;;;;;;;5061539;28;20119;-77
2022/12/22 15:21:56;;;;;;;13.48;7.10;;;;;;;;;;5058985;28;20048;-77
2022/12/22 15:24:22;;;;;;;12.73;7.82;;;;;;;;;;5063812;28;20462;-77
2022/12/22 15:26:51;;;;;;;12.20;7.40;;;;;;;;;;5055680;28;20102;-77
2022/12/22 15:29:17;;;;;;;13.45;7.95;;;;;;;;;;5053573;28;20135;-77
2022/12/22 15:31:44;;;;;;;14.18;8.55;;;;;;;;;;5060833;28;20128;-77
2022/12/22 15:34:13;;;;;;;17.23;8.88;;;;;;;;;;5060475;28;20481;-78
2022/12/22 15:36:40;;;;;;;18.08;10.90;;;;;;;;;;5058705;28;20059;-77
2022/12/22 15:39:11;;;;;;;18.77;9.25;;;;;;;;;;5066333;28;20061;-78
2022/12/22 15:41:37;;;;;;;14.48;8.85;;;;;;;;;;5061851;28;20041;-77
2022/12/22 15:44:03;;;;;;;16.02;10.20;;;;;;;;;;5068671;28;20044;-77
2022/12/22 15:46:30;;;;;;;18.30;9.93;;;;;;;;;;5057497;28;20052;-77
2022/12/22 15:48:56;;;;;;;14.95;10.30;;;;;;;;;;5068262;28;20048;-77
2022/12/22 15:51:24;;;;;;;21.13;12.00;;;;;;;;;;5065188;28;20106;-77
2022/12/22 15:53:50;;;;;;;21.52;11.73;;;;;;;;;;5068537;28;20041;-77
2022/12/22 15:56:23;;;;;;;19.02;14.35;;;;;;;;;;5066630;28;20040;-77
2022/12/22 15:58:49;;;;;;;20.45;15.10;;;;;;;;;;5057487;28;20482;-77
2022/12/22 16:01:15;;;;;;;21.67;15.32;;;;;;;;;;5063917;28;20484;-77
2022/12/22 16:03:41;;;;;;;21.05;15.38;;;;;;;;;;5064146;28;20045;-76
2022/12/22 16:06:12;;;;;;;21.15;15.75;;;;;;;;;;5067626;28;20124;-76
2022/12/22 16:08:40;;;;;;;23.65;14.77;;;;;;;;;;5061275;28;20111;-75
2022/12/22 16:11:06;;;;;;;22.90;15.88;;;;;;;;;;5061419;28;20071;-76
2022/12/22 16:13:32;;;;;;;22.83;15.60;;;;;;;;;;5063946;28;20424;-76
2022/12/22 16:15:59;;;;;;;22.83;14.82;;;;;;;;;;5063873;28;20072;-76
2022/12/22 16:18:25;;;;;;;21.88;14.45;;;;;;;;;;5070986;28;20044;-76
2022/12/22 16:20:51;;;;;;;21.48;14.70;;;;;;;;;;5067331;28;20039;-76
2022/12/22 16:23:19;;;;;;;23.38;14.77;;;;;;;;;;5067741;28;20052;-76
2022/12/22 16:25:45;;;;;;;26.13;15.93;;;;;;;;;;5069487;28;20132;-76
2022/12/22 16:28:23;;;;;;;28.92;16.83;;;;;;;;;;5069290;28;20254;-76
2022/12/22 16:30:49;;;;;;;27.20;17.90;;;;;;;;;;5060363;28;20393;-76
2022/12/22 16:33:15;;;;;;;27.38;17.45;;;;;;;;;;5061553;28;20044;-76
2022/12/22 16:35:41;;;;;;;30.67;17.60;;;;;;;;;;5068546;28;20072;-75
2022/12/22 16:38:08;;;;;;;29.08;18.10;;;;;;;;;;5069925;28;20373;-77
2022/12/22 16:40:43;;;;;;;30.40;19.92;;;;;;;;;;5069618;28;20044;-76
2022/12/22 16:43:18;;;;;;;28.45;19.38;;;;;;;;;;5059858;28;20055;-77
2022/12/22 16:45:45;;;;;;;32.88;20.38;;;;;;;;;;5061744;28;20123;-77
2022/12/22 16:48:32;;;;;;;27.65;18.77;;;;;;;;;;5067441;28;20049;-76
2022/12/22 16:50:58;;;;;;;29.08;20.60;;;;;;;;;;5059483;28;20125;-77
2022/12/22 16:53:24;;;;;;;27.45;20.40;;;;;;;;;;5065120;28;20492;-76
2022/12/22 16:55:50;;;;;;;30.75;21.05;;;;;;;;;;5064117;28;20467;-77
2022/12/22 16:58:16;;;;;;;25.85;19.30;;;;;;;;;;5066554;28;20073;-77
2022/12/22 17:00:44;;;;;;;27.42;19.33;;;;;;;;;;5065918;28;20048;-76
2022/12/22 17:03:12;;;;;;;31.13;20.92;;;;;;;;;;5070250;28;21076;-76
2022/12/22 17:06:03;;;;;;;30.50;21.27;;;;;;;;;;5066439;28;20036;-75
2022/12/22 17:08:29;;;;;;;34.20;21.95;;;;;;;;;;5063299;28;20048;-76
2022/12/22 17:10:57;;;;;;;42.42;31.00;;;;;;;;;;5062319;28;20043;-75
2022/12/22 17:13:23;;;;;;;30.40;21.80;;;;;;;;;;5055548;28;20135;-76
2022/12/22 17:15:49;;;;;;;32.13;21.75;;;;;;;;;;5068903;28;20079;-76
2022/12/22 17:18:22;;;;;;;34.03;22.60;;;;;;;;;;5067543;28;20032;-77
2022/12/22 17:20:49;;;;;;;31.83;21.33;;;;;;;;;;5067407;28;20442;-76
2022/12/22 17:23:21;;;;;;;32.55;22.15;;;;;;;;;;5067362;28;20099;-77
2022/12/22 17:25:47;;;;;;;32.40;22.25;;;;;;;;;;5062326;28;20058;-77
2022/12/22 17:28:13;;;;;;;37.13;23.10;;;;;;;;;;5068392;28;20519;-76
2022/12/22 17:30:39;;;;;;;42.50;24.80;;;;;;;;;;5065923;28;20402;-77
2022/12/22 17:33:09;;;;;;;39.92;24.52;;;;;;;;;;5059625;28;20079;-77
2022/12/22 17:35:36;;;;;;;39.83;24.95;;;;;;;;;;5069767;28;20492;-77
2022/12/22 17:38:02;;;;;;;45.47;26.75;;;;;;;;;;5072089;28;20102;-79
2022/12/22 17:40:29;;;;;;;46.95;26.70;;;;;;;;;;5063607;28;20095;-80
2022/12/22 17:42:57;;;;;;;44.13;25.90;;;;;;;;;;5065642;28;20040;-76
2022/12/22 17:45:26;;;;;;;44.92;25.65;;;;;;;;;;5071052;28;20052;-76
2022/12/22 17:47:52;;;;;;;46.22;27.33;;;;;;;;;;5073983;28;20091;-75
2022/12/22 17:50:19;;;;;;;47.38;28.02;;;;;;;;;;5074614;28;20045;-76
2022/12/22 17:52:48;;;;;;;44.53;26.35;;;;;;;;;;5067536;28;20128;-76
2022/12/22 17:55:19;;;;;;;48.95;27.15;;;;;;;;;;5071242;28;20039;-76
2022/12/22 17:57:45;;;;;;;46.08;27.00;;;;;;;;;;5069334;28;20076;-76
2022/12/22 18:00:19;;;;;;;46.15;26.50;;;;;;;;;;5063441;28;20565;-75
2022/12/22 18:02:44;;;;;;;;;;;;;;;;;;5067156;28;20065;-73
2022/12/22 18:05:11;;;;;;;47.58;27.90;;;;;;;;;;5071283;28;19916;-78
2022/12/22 18:07:37;;;;;;;49.20;29.40;;;;;;;;;;5067032;28;20058;-77
2022/12/22 18:10:04;;;;;;;47.65;27.27;;;;;;;;;;5071519;28;20051;-75
2022/12/22 18:12:30;;;;;;;50.45;30.30;;;;;;;;;;5077808;28;20045;-76
2022/12/22 18:14:56;;;;;;;48.72;27.30;;;;;;;;;;5068130;28;20037;-76
2022/12/22 18:17:25;;;;;;;45.47;25.55;;;;;;;;;;5065473;28;20510;-76